sensor_id;sensor_type;location;lat;lon;timestamp;P1;durP1;ratioP1;P2;durP2;ratioP2
42338;SDS011;27993;45.392;10.918;2022-11-04T00:01:43;50.35;;;25.67;;
42338;SDS011;27993;45.392;10.918;2022-11-04T00:04:16;43.78;;;23.92;;
42338;SDS011;27993;45.392;10.918;2022-11-04T00:06:48;43.95;;;22.33;;
42338;SDS011;27993;45.392;10.918;2022-11-04T00:09:28;49.35;;;23.50;;
42338;SDS011;27993;45.392;10.918;2022-11-04T00:11:59;37.13;;;20.80;;
42338;SDS011;27993;45.392;10.918;2022-11-04T00:14:48;37.70;;;20.50;;
42338;SDS011;27993;45.392;10.918;2022-11-04T00:17:19;30.47;;;19.17;;
42338;SDS011;27993;45.392;10.918;2022-11-04T00:19:51;26.58;;;17.58;;
42338;SDS011;27993;45.392;10.918;2022-11-04T00:22:41;27.63;;;16.17;;
42338;SDS011;27993;45.392;10.918;2022-11-04T00:25:35;24.42;;;13.25;;
42338;SDS011;27993;45.392;10.918;2022-11-04T00:28:24;18.62;;;12.35;;
42338;SDS011;27993;45.392;10.918;2022-11-04T00:31:13;22.08;;;12.60;;
42338;SDS011;27993;45.392;10.918;2022-11-04T00:34:02;19.15;;;11.77;;
42338;SDS011;27993;45.392;10.918;2022-11-04T00:36:33;24.10;;;10.73;;
42338;SDS011;27993;45.392;10.918;2022-11-04T00:39:03;17.87;;;10.07;;
42338;SDS011;27993;45.392;10.918;2022-11-04T00:41:34;15.93;;;10.53;;
42338;SDS011;27993;45.392;10.918;2022-11-04T00:44:04;14.87;;;9.90;;
42338;SDS011;27993;45.392;10.918;2022-11-04T00:46:35;14.77;;;9.93;;
42338;SDS011;27993;45.392;10.918;2022-11-04T00:49:06;14.87;;;10.10;;
42338;SDS011;27993;45.392;10.918;2022-11-04T00:51:36;14.33;;;8.27;;
42338;SDS011;27993;45.392;10.918;2022-11-04T00:54:07;10.65;;;7.95;;
42338;SDS011;27993;45.392;10.918;2022-11-04T00:56:38;15.60;;;8.15;;
42338;SDS011;27993;45.392;10.918;2022-11-04T00:59:09;13.10;;;7.93;;
42338;SDS011;27993;45.392;10.918;2022-11-04T01:01:40;11.87;;;7.73;;
42338;SDS011;27993;45.392;10.918;2022-11-04T01:04:11;14.27;;;8.70;;
42338;SDS011;27993;45.392;10.918;2022-11-04T01:06:42;11.35;;;7.87;;
42338;SDS011;27993;45.392;10.918;2022-11-04T01:09:13;10.53;;;6.97;;
42338;SDS011;27993;45.392;10.918;2022-11-04T01:11:44;13.93;;;7.93;;
42338;SDS011;27993;45.392;10.918;2022-11-04T01:14:15;17.77;;;7.87;;
42338;SDS011;27993;45.392;10.918;2022-11-04T01:16:45;12.03;;;8.27;;
42338;SDS011;27993;45.392;10.918;2022-11-04T01:19:18;11.77;;;7.97;;
42338;SDS011;27993;45.392;10.918;2022-11-04T01:21:50;11.35;;;7.22;;
42338;SDS011;27993;45.392;10.918;2022-11-04T01:24:21;9.55;;;7.18;;
42338;SDS011;27993;45.392;10.918;2022-11-04T01:26:52;20.13;;;8.50;;
42338;SDS011;27993;45.392;10.918;2022-11-04T01:29:22;9.70;;;6.47;;
42338;SDS011;27993;45.392;10.918;2022-11-04T01:31:53;13.30;;;8.87;;
42338;SDS011;27993;45.392;10.918;2022-11-04T01:34:23;12.23;;;8.00;;
42338;SDS011;27993;45.392;10.918;2022-11-04T01:36:54;14.10;;;9.87;;
42338;SDS011;27993;45.392;10.918;2022-11-04T01:39:25;12.77;;;9.10;;
42338;SDS011;27993;45.392;10.918;2022-11-04T01:41:55;12.77;;;9.17;;
42338;SDS011;27993;45.392;10.918;2022-11-04T01:44:45;12.00;;;7.20;;
42338;SDS011;27993;45.392;10.918;2022-11-04T01:47:19;14.68;;;9.70;;
42338;SDS011;27993;45.392;10.918;2022-11-04T01:50:08;21.58;;;12.48;;
42338;SDS011;27993;45.392;10.918;2022-11-04T01:52:47;15.07;;;10.82;;
42338;SDS011;27993;45.392;10.918;2022-11-04T01:55:25;17.33;;;11.85;;
42338;SDS011;27993;45.392;10.918;2022-11-04T01:58:00;17.17;;;12.40;;
42338;SDS011;27993;45.392;10.918;2022-11-04T02:00:34;17.90;;;11.88;;
42338;SDS011;27993;45.392;10.918;2022-11-04T02:03:12;16.67;;;11.90;;
42338;SDS011;27993;45.392;10.918;2022-11-04T02:05:46;17.95;;;11.95;;
42338;SDS011;27993;45.392;10.918;2022-11-04T02:08:17;13.13;;;7.93;;
42338;SDS011;27993;45.392;10.918;2022-11-04T02:10:53;15.60;;;11.80;;
42338;SDS011;27993;45.392;10.918;2022-11-04T02:13:31;15.48;;;9.98;;
42338;SDS011;27993;45.392;10.918;2022-11-04T02:18:45;17.87;;;14.55;;
42338;SDS011;27993;45.392;10.918;2022-11-04T02:30:49;26.77;;;16.62;;
42338;SDS011;27993;45.392;10.918;2022-11-04T02:36:08;22.85;;;16.73;;
42338;SDS011;27993;45.392;10.918;2022-11-04T02:39:15;22.42;;;15.95;;
42338;SDS011;27993;45.392;10.918;2022-11-04T02:42:11;20.77;;;14.55;;
42338;SDS011;27993;45.392;10.918;2022-11-04T02:47:27;15.13;;;10.27;;
42338;SDS011;27993;45.392;10.918;2022-11-04T02:55:21;31.23;;;15.73;;
42338;SDS011;27993;45.392;10.918;2022-11-04T02:58:03;18.77;;;11.63;;
42338;SDS011;27993;45.392;10.918;2022-11-04T03:00:38;24.48;;;14.80;;
42338;SDS011;27993;45.392;10.918;2022-11-04T03:03:16;21.98;;;13.95;;
42338;SDS011;27993;45.392;10.918;2022-11-04T03:05:52;20.70;;;14.50;;
42338;SDS011;27993;45.392;10.918;2022-11-04T03:08:26;19.05;;;12.25;;
42338;SDS011;27993;45.392;10.918;2022-11-04T03:11:19;15.93;;;13.07;;
42338;SDS011;27993;45.392;10.918;2022-11-04T03:14:03;19.85;;;12.77;;
42338;SDS011;27993;45.392;10.918;2022-11-04T03:16:41;17.80;;;12.52;;
42338;SDS011;27993;45.392;10.918;2022-11-04T03:22:01;13.62;;;10.95;;
42338;SDS011;27993;45.392;10.918;2022-11-04T03:24:33;19.60;;;12.68;;
42338;SDS011;27993;45.392;10.918;2022-11-04T03:27:07;14.60;;;10.63;;
42338;SDS011;27993;45.392;10.918;2022-11-04T03:35:39;19.55;;;12.10;;
42338;SDS011;27993;45.392;10.918;2022-11-04T03:38:10;18.95;;;12.15;;
42338;SDS011;27993;45.392;10.918;2022-11-04T03:40:41;19.67;;;11.93;;
42338;SDS011;27993;45.392;10.918;2022-11-04T03:43:16;17.65;;;12.40;;
42338;SDS011;27993;45.392;10.918;2022-11-04T03:45:54;24.98;;;14.82;;
42338;SDS011;27993;45.392;10.918;2022-11-04T03:48:25;17.50;;;13.62;;
42338;SDS011;27993;45.392;10.918;2022-11-04T03:50:57;14.77;;;10.23;;
42338;SDS011;27993;45.392;10.918;2022-11-04T03:53:28;19.17;;;13.23;;
42338;SDS011;27993;45.392;10.918;2022-11-04T03:56:04;14.82;;;10.80;;
42338;SDS011;27993;45.392;10.918;2022-11-04T04:02:14;17.42;;;13.38;;
42338;SDS011;27993;45.392;10.918;2022-11-04T04:04:55;25.33;;;12.90;;
42338;SDS011;27993;45.392;10.918;2022-11-04T04:07:40;22.03;;;11.77;;
42338;SDS011;27993;45.392;10.918;2022-11-04T04:16:17;17.67;;;12.73;;
42338;SDS011;27993;45.392;10.918;2022-11-04T04:18:55;18.08;;;13.82;;
42338;SDS011;27993;45.392;10.918;2022-11-04T04:21:32;22.60;;;15.00;;
42338;SDS011;27993;45.392;10.918;2022-11-04T04:24:10;20.85;;;13.30;;
42338;SDS011;27993;45.392;10.918;2022-11-04T04:27:04;23.67;;;16.08;;
42338;SDS011;27993;45.392;10.918;2022-11-04T04:29:54;25.17;;;13.35;;
42338;SDS011;27993;45.392;10.918;2022-11-04T04:32:25;23.08;;;14.10;;
42338;SDS011;27993;45.392;10.918;2022-11-04T04:34:58;31.98;;;14.85;;
42338;SDS011;27993;45.392;10.918;2022-11-04T04:37:47;23.85;;;14.63;;
42338;SDS011;27993;45.392;10.918;2022-11-04T04:40:20;25.77;;;14.32;;
42338;SDS011;27993;45.392;10.918;2022-11-04T04:43:14;19.40;;;15.63;;
42338;SDS011;27993;45.392;10.918;2022-11-04T04:46:04;24.83;;;15.63;;
42338;SDS011;27993;45.392;10.918;2022-11-04T04:48:34;29.50;;;14.73;;
42338;SDS011;27993;45.392;10.918;2022-11-04T04:51:05;20.62;;;14.77;;
42338;SDS011;27993;45.392;10.918;2022-11-04T04:53:36;21.73;;;15.50;;
42338;SDS011;27993;45.392;10.918;2022-11-04T04:56:07;24.40;;;16.60;;
42338;SDS011;27993;45.392;10.918;2022-11-04T04:58:38;20.77;;;14.30;;
42338;SDS011;27993;45.392;10.918;2022-11-04T05:01:08;21.17;;;15.40;;
42338;SDS011;27993;45.392;10.918;2022-11-04T05:03:39;30.87;;;16.03;;
42338;SDS011;27993;45.392;10.918;2022-11-04T05:06:09;21.07;;;14.63;;
42338;SDS011;27993;45.392;10.918;2022-11-04T05:08:40;21.70;;;15.93;;
42338;SDS011;27993;45.392;10.918;2022-11-04T05:11:11;27.57;;;17.47;;
42338;SDS011;27993;45.392;10.918;2022-11-04T05:13:42;26.70;;;16.62;;
42338;SDS011;27993;45.392;10.918;2022-11-04T05:16:12;32.63;;;15.13;;
42338;SDS011;27993;45.392;10.918;2022-11-04T05:18:43;23.97;;;15.97;;
42338;SDS011;27993;45.392;10.918;2022-11-04T05:21:14;20.77;;;15.47;;
42338;SDS011;27993;45.392;10.918;2022-11-04T05:23:45;29.63;;;17.70;;
42338;SDS011;27993;45.392;10.918;2022-11-04T05:26:15;31.80;;;17.67;;
42338;SDS011;27993;45.392;10.918;2022-11-04T05:28:46;24.12;;;16.70;;
42338;SDS011;27993;45.392;10.918;2022-11-04T05:31:17;23.83;;;17.70;;
42338;SDS011;27993;45.392;10.918;2022-11-04T05:33:47;36.03;;;18.37;;
42338;SDS011;27993;45.392;10.918;2022-11-04T05:36:18;26.77;;;16.65;;
42338;SDS011;27993;45.392;10.918;2022-11-04T05:38:49;29.45;;;17.20;;
42338;SDS011;27993;45.392;10.918;2022-11-04T05:41:21;28.02;;;18.35;;
42338;SDS011;27993;45.392;10.918;2022-11-04T05:43:58;24.77;;;17.15;;
42338;SDS011;27993;45.392;10.918;2022-11-04T05:46:30;24.90;;;16.02;;
42338;SDS011;27993;45.392;10.918;2022-11-04T05:49:01;24.95;;;17.48;;
42338;SDS011;27993;45.392;10.918;2022-11-04T05:51:32;34.33;;;17.63;;
42338;SDS011;27993;45.392;10.918;2022-11-04T05:54:02;21.33;;;17.15;;
42338;SDS011;27993;45.392;10.918;2022-11-04T05:56:33;22.80;;;18.20;;
42338;SDS011;27993;45.392;10.918;2022-11-04T05:59:04;21.20;;;16.23;;
42338;SDS011;27993;45.392;10.918;2022-11-04T06:01:35;23.10;;;16.73;;
42338;SDS011;27993;45.392;10.918;2022-11-04T06:04:11;23.75;;;17.95;;
42338;SDS011;27993;45.392;10.918;2022-11-04T06:06:44;26.83;;;18.92;;
42338;SDS011;27993;45.392;10.918;2022-11-04T06:09:15;22.13;;;16.83;;
42338;SDS011;27993;45.392;10.918;2022-11-04T06:11:45;25.50;;;16.10;;
42338;SDS011;27993;45.392;10.918;2022-11-04T06:14:16;24.53;;;16.10;;
42338;SDS011;27993;45.392;10.918;2022-11-04T06:16:46;30.33;;;17.97;;
42338;SDS011;27993;45.392;10.918;2022-11-04T06:19:17;29.73;;;17.77;;
42338;SDS011;27993;45.392;10.918;2022-11-04T06:21:48;31.80;;;20.77;;
42338;SDS011;27993;45.392;10.918;2022-11-04T06:24:18;34.67;;;18.57;;
42338;SDS011;27993;45.392;10.918;2022-11-04T06:26:49;31.27;;;19.53;;
42338;SDS011;27993;45.392;10.918;2022-11-04T06:29:19;34.90;;;18.83;;
42338;SDS011;27993;45.392;10.918;2022-11-04T06:31:50;28.87;;;19.63;;
42338;SDS011;27993;45.392;10.918;2022-11-04T06:34:21;34.80;;;22.23;;
42338;SDS011;27993;45.392;10.918;2022-11-04T06:36:51;36.50;;;20.12;;
42338;SDS011;27993;45.392;10.918;2022-11-04T06:39:22;32.80;;;20.20;;
42338;SDS011;27993;45.392;10.918;2022-11-04T06:41:52;20.67;;;12.40;;
42338;SDS011;27993;45.392;10.918;2022-11-04T06:44:23;12.50;;;9.30;;
42338;SDS011;27993;45.392;10.918;2022-11-04T06:46:54;20.37;;;9.70;;
42338;SDS011;27993;45.392;10.918;2022-11-04T06:49:24;15.82;;;8.00;;
42338;SDS011;27993;45.392;10.918;2022-11-04T06:51:55;17.47;;;8.57;;
42338;SDS011;27993;45.392;10.918;2022-11-04T06:54:26;21.97;;;8.37;;
42338;SDS011;27993;45.392;10.918;2022-11-04T06:56:56;13.67;;;7.73;;
42338;SDS011;27993;45.392;10.918;2022-11-04T06:59:27;12.27;;;7.37;;
42338;SDS011;27993;45.392;10.918;2022-11-04T07:01:58;8.17;;;5.93;;
42338;SDS011;27993;45.392;10.918;2022-11-04T07:04:28;7.13;;;4.50;;
42338;SDS011;27993;45.392;10.918;2022-11-04T07:06:59;9.73;;;4.10;;
42338;SDS011;27993;45.392;10.918;2022-11-04T07:09:29;5.07;;;2.93;;
42338;SDS011;27993;45.392;10.918;2022-11-04T07:12:00;3.20;;;2.00;;
42338;SDS011;27993;45.392;10.918;2022-11-04T07:14:31;2.97;;;1.70;;
42338;SDS011;27993;45.392;10.918;2022-11-04T07:17:01;6.10;;;1.50;;
42338;SDS011;27993;45.392;10.918;2022-11-04T07:19:32;2.22;;;1.35;;
42338;SDS011;27993;45.392;10.918;2022-11-04T07:22:03;2.27;;;1.50;;
42338;SDS011;27993;45.392;10.918;2022-11-04T07:24:33;1.63;;;0.87;;
42338;SDS011;27993;45.392;10.918;2022-11-04T07:27:04;1.23;;;1.00;;
42338;SDS011;27993;45.392;10.918;2022-11-04T07:29:36;1.35;;;0.80;;
42338;SDS011;27993;45.392;10.918;2022-11-04T07:32:07;0.70;;;0.70;;
42338;SDS011;27993;45.392;10.918;2022-11-04T07:34:37;1.90;;;0.97;;
42338;SDS011;27993;45.392;10.918;2022-11-04T07:37:08;1.67;;;0.73;;
42338;SDS011;27993;45.392;10.918;2022-11-04T07:39:39;0.80;;;0.60;;
42338;SDS011;27993;45.392;10.918;2022-11-04T07:42:09;0.67;;;0.60;;
42338;SDS011;27993;45.392;10.918;2022-11-04T07:44:40;3.20;;;1.00;;
42338;SDS011;27993;45.392;10.918;2022-11-04T07:47:10;5.37;;;0.97;;
42338;SDS011;27993;45.392;10.918;2022-11-04T07:49:41;1.17;;;0.73;;
42338;SDS011;27993;45.392;10.918;2022-11-04T07:52:12;2.27;;;0.80;;
42338;SDS011;27993;45.392;10.918;2022-11-04T07:54:42;1.00;;;0.50;;
42338;SDS011;27993;45.392;10.918;2022-11-04T07:57:13;1.07;;;0.60;;
42338;SDS011;27993;45.392;10.918;2022-11-04T07:59:43;0.83;;;0.83;;
42338;SDS011;27993;45.392;10.918;2022-11-04T08:02:14;1.73;;;0.60;;
42338;SDS011;27993;45.392;10.918;2022-11-04T08:04:45;2.58;;;0.98;;
42338;SDS011;27993;45.392;10.918;2022-11-04T08:07:15;4.60;;;1.10;;
42338;SDS011;27993;45.392;10.918;2022-11-04T08:09:46;1.17;;;0.80;;
42338;SDS011;27993;45.392;10.918;2022-11-04T08:12:17;2.73;;;1.30;;
42338;SDS011;27993;45.392;10.918;2022-11-04T08:14:50;3.03;;;0.88;;
42338;SDS011;27993;45.392;10.918;2022-11-04T08:17:20;1.33;;;1.00;;
42338;SDS011;27993;45.392;10.918;2022-11-04T08:19:51;1.73;;;1.20;;
42338;SDS011;27993;45.392;10.918;2022-11-04T08:24:52;3.83;;;1.20;;
42338;SDS011;27993;45.392;10.918;2022-11-04T08:27:23;0.90;;;0.90;;
42338;SDS011;27993;45.392;10.918;2022-11-04T08:29:53;1.52;;;1.00;;
42338;SDS011;27993;45.392;10.918;2022-11-04T08:32:24;1.92;;;1.00;;
42338;SDS011;27993;45.392;10.918;2022-11-04T08:34:54;1.45;;;0.80;;
42338;SDS011;27993;45.392;10.918;2022-11-04T08:37:25;1.67;;;1.15;;
42338;SDS011;27993;45.392;10.918;2022-11-04T08:39:56;1.80;;;1.30;;
42338;SDS011;27993;45.392;10.918;2022-11-04T08:42:26;1.37;;;1.20;;
42338;SDS011;27993;45.392;10.918;2022-11-04T08:44:57;1.45;;;1.00;;
42338;SDS011;27993;45.392;10.918;2022-11-04T08:49:58;1.40;;;1.08;;
42338;SDS011;27993;45.392;10.918;2022-11-04T08:52:29;1.92;;;1.27;;
42338;SDS011;27993;45.392;10.918;2022-11-04T08:54:59;2.85;;;1.48;;
42338;SDS011;27993;45.392;10.918;2022-11-04T08:57:33;1.12;;;1.05;;
42338;SDS011;27993;45.392;10.918;2022-11-04T09:00:07;3.08;;;1.48;;
42338;SDS011;27993;45.392;10.918;2022-11-04T09:02:38;1.48;;;1.05;;
42338;SDS011;27993;45.392;10.918;2022-11-04T09:05:09;1.55;;;1.08;;
42338;SDS011;27993;45.392;10.918;2022-11-04T09:07:40;4.53;;;1.30;;
42338;SDS011;27993;45.392;10.918;2022-11-04T09:10:11;5.07;;;1.10;;
42338;SDS011;27993;45.392;10.918;2022-11-04T09:12:42;2.00;;;1.00;;
42338;SDS011;27993;45.392;10.918;2022-11-04T09:15:14;3.37;;;1.00;;
42338;SDS011;27993;45.392;10.918;2022-11-04T09:17:44;3.85;;;1.10;;
42338;SDS011;27993;45.392;10.918;2022-11-04T09:20:15;2.55;;;1.15;;
42338;SDS011;27993;45.392;10.918;2022-11-04T09:22:45;1.52;;;1.10;;
42338;SDS011;27993;45.392;10.918;2022-11-04T09:25:19;4.93;;;1.20;;
42338;SDS011;27993;45.392;10.918;2022-11-04T09:27:49;2.72;;;1.05;;
42338;SDS011;27993;45.392;10.918;2022-11-04T09:30:20;2.97;;;1.17;;
42338;SDS011;27993;45.392;10.918;2022-11-04T09:32:51;2.17;;;1.40;;
42338;SDS011;27993;45.392;10.918;2022-11-04T09:35:21;2.15;;;1.00;;
42338;SDS011;27993;45.392;10.918;2022-11-04T09:37:52;2.65;;;1.08;;
42338;SDS011;27993;45.392;10.918;2022-11-04T09:40:23;1.17;;;0.90;;
42338;SDS011;27993;45.392;10.918;2022-11-04T09:43:08;1.10;;;1.00;;
42338;SDS011;27993;45.392;10.918;2022-11-04T09:45:42;1.50;;;1.02;;
42338;SDS011;27993;45.392;10.918;2022-11-04T09:48:23;1.33;;;1.23;;
42338;SDS011;27993;45.392;10.918;2022-11-04T09:50:57;1.50;;;1.25;;
42338;SDS011;27993;45.392;10.918;2022-11-04T09:53:36;2.85;;;1.30;;
42338;SDS011;27993;45.392;10.918;2022-11-04T09:56:20;1.60;;;1.20;;
42338;SDS011;27993;45.392;10.918;2022-11-04T09:58:52;1.33;;;1.05;;
42338;SDS011;27993;45.392;10.918;2022-11-04T10:01:31;1.25;;;1.15;;
42338;SDS011;27993;45.392;10.918;2022-11-04T10:04:28;1.45;;;1.12;;
42338;SDS011;27993;45.392;10.918;2022-11-04T10:07:31;0.98;;;0.90;;
42338;SDS011;27993;45.392;10.918;2022-11-04T10:10:19;1.30;;;1.20;;
42338;SDS011;27993;45.392;10.918;2022-11-04T10:19:29;1.42;;;1.33;;
42338;SDS011;27993;45.392;10.918;2022-11-04T10:22:25;1.10;;;1.05;;
42338;SDS011;27993;45.392;10.918;2022-11-04T10:25:09;7.55;;;1.10;;
42338;SDS011;27993;45.392;10.918;2022-11-04T10:27:44;8.68;;;1.25;;
42338;SDS011;27993;45.392;10.918;2022-11-04T10:33:07;3.42;;;1.00;;
42338;SDS011;27993;45.392;10.918;2022-11-04T10:35:43;1.15;;;0.90;;
42338;SDS011;27993;45.392;10.918;2022-11-04T10:40:53;2.55;;;1.12;;
42338;SDS011;27993;45.392;10.918;2022-11-04T10:43:30;1.33;;;0.90;;
42338;SDS011;27993;45.392;10.918;2022-11-04T10:46:16;1.45;;;0.88;;
42338;SDS011;27993;45.392;10.918;2022-11-04T10:51:54;2.62;;;0.98;;
42338;SDS011;27993;45.392;10.918;2022-11-04T10:56:56;2.50;;;1.13;;
42338;SDS011;27993;45.392;10.918;2022-11-04T10:59:36;2.75;;;1.60;;
42338;SDS011;27993;45.392;10.918;2022-11-04T11:05:23;4.45;;;1.10;;
42338;SDS011;27993;45.392;10.918;2022-11-04T11:07:55;2.92;;;1.33;;
42338;SDS011;27993;45.392;10.918;2022-11-04T11:10:28;1.98;;;1.27;;
42338;SDS011;27993;45.392;10.918;2022-11-04T11:13:03;6.15;;;1.35;;
42338;SDS011;27993;45.392;10.918;2022-11-04T11:15:37;1.35;;;1.10;;
42338;SDS011;27993;45.392;10.918;2022-11-04T11:18:17;2.58;;;1.37;;
42338;SDS011;27993;45.392;10.918;2022-11-04T11:21:02;1.10;;;0.90;;
42338;SDS011;27993;45.392;10.918;2022-11-04T11:23:37;1.33;;;0.88;;
42338;SDS011;27993;45.392;10.918;2022-11-04T11:26:11;1.17;;;1.08;;
42338;SDS011;27993;45.392;10.918;2022-11-04T11:28:50;1.45;;;1.30;;
42338;SDS011;27993;45.392;10.918;2022-11-04T11:31:25;1.40;;;1.00;;
42338;SDS011;27993;45.392;10.918;2022-11-04T11:34:06;5.95;;;1.10;;
42338;SDS011;27993;45.392;10.918;2022-11-04T11:36:45;0.90;;;0.90;;
42338;SDS011;27993;45.392;10.918;2022-11-04T11:39:18;0.90;;;0.80;;
42338;SDS011;27993;45.392;10.918;2022-11-04T11:41:55;0.70;;;0.70;;
42338;SDS011;27993;45.392;10.918;2022-11-04T11:44:28;0.80;;;0.80;;
42338;SDS011;27993;45.392;10.918;2022-11-04T11:47:22;1.20;;;0.82;;
42338;SDS011;27993;45.392;10.918;2022-11-04T11:50:21;0.75;;;0.75;;
42338;SDS011;27993;45.392;10.918;2022-11-04T11:56:23;0.90;;;0.90;;
42338;SDS011;27993;45.392;10.918;2022-11-04T11:59:03;1.10;;;0.77;;
42338;SDS011;27993;45.392;10.918;2022-11-04T12:01:46;0.80;;;0.80;;
42338;SDS011;27993;45.392;10.918;2022-11-04T12:04:21;0.80;;;0.80;;
42338;SDS011;27993;45.392;10.918;2022-11-04T12:10:10;0.88;;;0.88;;
42338;SDS011;27993;45.392;10.918;2022-11-04T12:12:29;0.80;;;0.80;;
42338;SDS011;27993;45.392;10.918;2022-11-04T12:23:52;0.65;;;0.65;;
42338;SDS011;27993;45.392;10.918;2022-11-04T12:41:04;0.70;;;0.70;;
42338;SDS011;27993;45.392;10.918;2022-11-04T12:43:55;1.00;;;0.90;;
42338;SDS011;27993;45.392;10.918;2022-11-04T12:55:54;1.90;;;0.80;;
42338;SDS011;27993;45.392;10.918;2022-11-04T13:01:38;1.23;;;0.70;;
42338;SDS011;27993;45.392;10.918;2022-11-04T13:04:17;1.37;;;0.98;;
42338;SDS011;27993;45.392;10.918;2022-11-04T13:06:55;1.40;;;1.00;;
42338;SDS011;27993;45.392;10.918;2022-11-04T13:09:51;0.75;;;0.73;;
42338;SDS011;27993;45.392;10.918;2022-11-04T13:12:26;0.80;;;0.80;;
42338;SDS011;27993;45.392;10.918;2022-11-04T13:15:02;1.05;;;0.98;;
42338;SDS011;27993;45.392;10.918;2022-11-04T13:17:45;1.12;;;0.70;;
42338;SDS011;27993;45.392;10.918;2022-11-04T13:23:11;0.73;;;0.73;;
42338;SDS011;27993;45.392;10.918;2022-11-04T13:25:47;4.47;;;1.00;;
42338;SDS011;27993;45.392;10.918;2022-11-04T13:28:19;2.03;;;0.80;;
42338;SDS011;27993;45.392;10.918;2022-11-04T13:30:53;2.25;;;1.05;;
42338;SDS011;27993;45.392;10.918;2022-11-04T13:39:47;1.50;;;0.80;;
42338;SDS011;27993;45.392;10.918;2022-11-04T13:42:28;1.90;;;1.08;;
42338;SDS011;27993;45.392;10.918;2022-11-04T13:45:13;1.15;;;0.70;;
42338;SDS011;27993;45.392;10.918;2022-11-04T13:47:52;12.95;;;1.62;;
42338;SDS011;27993;45.392;10.918;2022-11-04T13:50:33;1.27;;;1.03;;
42338;SDS011;27993;45.392;10.918;2022-11-04T13:53:07;0.52;;;0.50;;
42338;SDS011;27993;45.392;10.918;2022-11-04T13:55:46;1.05;;;0.57;;
42338;SDS011;27993;45.392;10.918;2022-11-04T13:58:25;0.70;;;0.70;;
42338;SDS011;27993;45.392;10.918;2022-11-04T14:01:24;0.80;;;0.80;;
42338;SDS011;27993;45.392;10.918;2022-11-04T14:09:31;1.33;;;0.62;;
42338;SDS011;27993;45.392;10.918;2022-11-04T14:14:41;1.40;;;0.52;;
42338;SDS011;27993;45.392;10.918;2022-11-04T14:22:48;0.82;;;0.82;;
42338;SDS011;27993;45.392;10.918;2022-11-04T14:30:48;0.62;;;0.62;;
42338;SDS011;27993;45.392;10.918;2022-11-04T14:33:21;0.88;;;0.82;;
42338;SDS011;27993;45.392;10.918;2022-11-04T14:36:43;1.95;;;0.82;;
42338;SDS011;27993;45.392;10.918;2022-11-04T14:38:56;1.97;;;0.90;;
42338;SDS011;27993;45.392;10.918;2022-11-04T14:44:35;0.95;;;0.77;;
42338;SDS011;27993;45.392;10.918;2022-11-04T14:52:43;3.15;;;0.70;;
42338;SDS011;27993;45.392;10.918;2022-11-04T14:55:18;0.55;;;0.55;;
42338;SDS011;27993;45.392;10.918;2022-11-04T14:57:52;0.60;;;0.60;;
42338;SDS011;27993;45.392;10.918;2022-11-04T15:03:02;1.42;;;0.73;;
42338;SDS011;27993;45.392;10.918;2022-11-04T15:05:36;1.95;;;0.75;;
42338;SDS011;27993;45.392;10.918;2022-11-04T15:11:02;1.60;;;0.80;;
42338;SDS011;27993;45.392;10.918;2022-11-04T15:13:34;0.60;;;0.60;;
42338;SDS011;27993;45.392;10.918;2022-11-04T15:16:07;3.58;;;0.73;;
42338;SDS011;27993;45.392;10.918;2022-11-04T15:18:54;1.15;;;0.65;;
42338;SDS011;27993;45.392;10.918;2022-11-04T15:21:26;0.80;;;0.60;;
42338;SDS011;27993;45.392;10.918;2022-11-04T15:23:57;1.20;;;0.80;;
42338;SDS011;27993;45.392;10.918;2022-11-04T15:26:28;0.95;;;0.62;;
42338;SDS011;27993;45.392;10.918;2022-11-04T15:29:02;5.50;;;0.82;;
42338;SDS011;27993;45.392;10.918;2022-11-04T15:31:38;3.33;;;0.68;;
42338;SDS011;27993;45.392;10.918;2022-11-04T15:34:27;4.20;;;1.33;;
42338;SDS011;27993;45.392;10.918;2022-11-04T15:37:00;7.28;;;1.40;;
42338;SDS011;27993;45.392;10.918;2022-11-04T15:39:41;1.87;;;0.70;;
42338;SDS011;27993;45.392;10.918;2022-11-04T15:42:27;1.48;;;0.65;;
42338;SDS011;27993;45.392;10.918;2022-11-04T15:45:36;0.65;;;0.57;;
42338;SDS011;27993;45.392;10.918;2022-11-04T15:54:28;0.73;;;0.73;;
42338;SDS011;27993;45.392;10.918;2022-11-04T15:56:57;5.95;;;3.03;;
42338;SDS011;27993;45.392;10.918;2022-11-04T15:59:32;13.30;;;7.22;;
42338;SDS011;27993;45.392;10.918;2022-11-04T16:02:04;6.82;;;3.42;;
42338;SDS011;27993;45.392;10.918;2022-11-04T16:04:54;3.37;;;0.95;;
42338;SDS011;27993;45.392;10.918;2022-11-04T16:07:52;2.00;;;1.25;;
42338;SDS011;27993;45.392;10.918;2022-11-04T16:15:50;2.67;;;1.15;;
42338;SDS011;27993;45.392;10.918;2022-11-04T16:21:25;1.42;;;0.88;;
42338;SDS011;27993;45.392;10.918;2022-11-04T16:24:02;2.42;;;1.00;;
42338;SDS011;27993;45.392;10.918;2022-11-04T16:26:53;4.47;;;1.48;;
42338;SDS011;27993;45.392;10.918;2022-11-04T16:29:29;2.47;;;1.23;;
42338;SDS011;27993;45.392;10.918;2022-11-04T16:32:13;2.75;;;1.20;;
42338;SDS011;27993;45.392;10.918;2022-11-04T16:34:57;1.40;;;0.95;;
42338;SDS011;27993;45.392;10.918;2022-11-04T16:37:30;1.58;;;0.98;;
42338;SDS011;27993;45.392;10.918;2022-11-04T16:40:01;3.22;;;1.45;;
42338;SDS011;27993;45.392;10.918;2022-11-04T16:42:35;2.45;;;1.40;;
42338;SDS011;27993;45.392;10.918;2022-11-04T16:45:06;1.65;;;0.80;;
42338;SDS011;27993;45.392;10.918;2022-11-04T16:47:45;2.20;;;1.02;;
42338;SDS011;27993;45.392;10.918;2022-11-04T16:50:16;2.33;;;0.70;;
42338;SDS011;27993;45.392;10.918;2022-11-04T16:52:47;1.48;;;0.80;;
42338;SDS011;27993;45.392;10.918;2022-11-04T16:55:18;1.50;;;0.80;;
42338;SDS011;27993;45.392;10.918;2022-11-04T16:57:57;4.70;;;1.20;;
42338;SDS011;27993;45.392;10.918;2022-11-04T17:00:30;2.17;;;1.10;;
42338;SDS011;27993;45.392;10.918;2022-11-04T17:05:42;1.52;;;1.10;;
42338;SDS011;27993;45.392;10.918;2022-11-04T17:08:13;4.57;;;2.20;;
42338;SDS011;27993;45.392;10.918;2022-11-04T17:10:44;3.12;;;1.58;;
42338;SDS011;27993;45.392;10.918;2022-11-04T17:13:15;1.80;;;1.15;;
42338;SDS011;27993;45.392;10.918;2022-11-04T17:15:45;1.33;;;0.80;;
42338;SDS011;27993;45.392;10.918;2022-11-04T17:18:19;5.75;;;1.55;;
42338;SDS011;27993;45.392;10.918;2022-11-04T17:20:51;5.15;;;1.20;;
42338;SDS011;27993;45.392;10.918;2022-11-04T17:23:23;6.10;;;1.20;;
42338;SDS011;27993;45.392;10.918;2022-11-04T17:25:54;4.37;;;1.20;;
42338;SDS011;27993;45.392;10.918;2022-11-04T17:28:24;1.67;;;1.17;;
42338;SDS011;27993;45.392;10.918;2022-11-04T17:30:55;4.70;;;1.33;;
42338;SDS011;27993;45.392;10.918;2022-11-04T17:33:26;4.07;;;1.40;;
42338;SDS011;27993;45.392;10.918;2022-11-04T17:35:57;6.47;;;2.10;;
42338;SDS011;27993;45.392;10.918;2022-11-04T17:38:28;4.65;;;1.50;;
42338;SDS011;27993;45.392;10.918;2022-11-04T17:40:59;5.90;;;2.27;;
42338;SDS011;27993;45.392;10.918;2022-11-04T17:43:51;4.32;;;1.30;;
42338;SDS011;27993;45.392;10.918;2022-11-04T17:46:31;5.10;;;1.48;;
42338;SDS011;27993;45.392;10.918;2022-11-04T17:49:09;6.70;;;1.83;;
42338;SDS011;27993;45.392;10.918;2022-11-04T17:51:43;2.47;;;1.40;;
42338;SDS011;27993;45.392;10.918;2022-11-04T17:54:15;5.10;;;2.67;;
42338;SDS011;27993;45.392;10.918;2022-11-04T17:56:46;6.78;;;2.30;;
42338;SDS011;27993;45.392;10.918;2022-11-04T17:59:17;3.87;;;1.77;;
42338;SDS011;27993;45.392;10.918;2022-11-04T18:01:48;4.17;;;1.70;;